Time;durP1;ratioP1;P1;durP2;ratioP2;P2;SDS_P1;SDS_P2;PMS_P1;PMS_P2;Temp;Humidity;BMP_temperature;BMP_pressure;BME280_temperature;BME280_humidity;BME280_pressure;Samples;Min_cycle;Max_cycle;Signal;HPM_P1;HPM_P2
2022/04/04 00:02:16;;;;;;;10.27;6.53;;;0.50;99.90;;;;;;4956019;29;20027;-85
2022/04/04 00:04:42;;;;;;;10.32;6.10;;;0.50;99.90;;;;;;4955755;29;20351;-86
2022/04/04 00:07:08;;;;;;;12.75;6.78;;;0.50;99.90;;;;;;4956106;29;20031;-85
2022/04/04 00:09:38;;;;;;;11.40;5.43;;;0.40;99.90;;;;;;4955944;29;20039;-86
2022/04/04 00:12:05;;;;;;;12.55;6.35;;;0.50;99.90;;;;;;4955802;29;20023;-85
2022/04/04 00:14:32;;;;;;;8.32;5.95;;;0.40;99.90;;;;;;4955908;29;20027;-86
2022/04/04 00:17:00;;;;;;;8.48;6.07;;;0.50;99.90;;;;;;4956169;29;20389;-85
2022/04/04 00:19:26;;;;;;;8.82;6.10;;;0.40;99.90;;;;;;4956044;29;20019;-90
2022/04/04 00:21:52;;;;;;;11.10;6.55;;;0.50;99.90;;;;;;4955860;29;20054;-88
2022/04/04 00:24:17;;;;;;;8.25;5.70;;;0.50;99.90;;;;;;4955740;29;20435;-88
2022/04/04 00:26:43;;;;;;;8.10;5.82;;;0.50;99.90;;;;;;4955603;28;20047;-88
2022/04/04 00:29:09;;;;;;;8.82;6.35;;;0.50;99.90;;;;;;4955739;29;20027;-88
2022/04/04 00:31:38;;;;;;;11.60;6.35;;;0.50;99.90;;;;;;4955674;29;20073;-86
2022/04/04 00:34:03;;;;;;;11.20;6.25;;;0.50;99.90;;;;;;4955466;29;20023;-86
2022/04/04 00:36:29;;;;;;;10.82;6.40;;;0.50;99.90;;;;;;4955358;28;20030;-86
2022/04/04 00:38:55;;;;;;;10.75;6.47;;;0.60;99.90;;;;;;4955586;28;20405;-86
2022/04/04 00:41:20;;;;;;;8.13;6.18;;;0.50;99.90;;;;;;4955620;29;20482;-86
2022/04/04 00:43:51;;;;;;;10.05;6.47;;;0.50;99.90;;;;;;4955379;29;20034;-86
2022/04/04 00:46:16;;;;;;;10.38;6.93;;;0.50;99.90;;;;;;4955198;29;20086;-86
2022/04/04 00:48:42;;;;;;;9.73;6.90;;;0.60;99.90;;;;;;4955208;29;20031;-87
2022/04/04 00:51:07;;;;;;;10.35;6.95;;;0.50;99.90;;;;;;4955516;29;20037;-86
2022/04/04 00:53:33;;;;;;;8.48;6.07;;;0.50;99.90;;;;;;4955221;29;20046;-87
2022/04/04 00:56:00;;;;;;;9.48;6.07;;;0.40;99.90;;;;;;4955288;29;20066;-86
2022/04/04 00:58:29;;;;;;;8.10;6.22;;;0.40;99.90;;;;;;4955030;28;20054;-86
2022/04/04 01:00:55;;;;;;;10.13;6.68;;;0.40;99.90;;;;;;4954881;29;20031;-86
2022/04/04 01:03:20;;;;;;;10.95;6.35;;;0.40;99.90;;;;;;4954794;29;20036;-88
2022/04/04 01:05:46;;;;;;;10.30;6.80;;;0.40;99.90;;;;;;4955060;29;20031;-87
2022/04/04 01:08:15;;;;;;;11.82;6.72;;;0.40;99.90;;;;;;4954340;29;20397;-87
2022/04/04 01:10:44;;;;;;;10.68;7.18;;;0.40;99.90;;;;;;4954896;29;20106;-87
2022/04/04 01:13:11;;;;;;;12.65;6.25;;;0.40;99.90;;;;;;4954979;29;20501;-87
2022/04/04 01:15:57;;;;;;;11.00;6.78;;;0.40;99.90;;;;;;4954852;29;20029;-87
2022/04/04 01:18:22;;;;;;;10.18;6.53;;;0.40;99.90;;;;;;4954594;28;20034;-86
2022/04/04 01:20:59;;;;;;;9.20;6.35;;;0.40;99.90;;;;;;4954707;29;20027;-86
2022/04/04 01:23:25;;;;;;;14.20;6.75;;;0.40;99.90;;;;;;4954715;29;20397;-86
2022/04/04 01:25:56;;;;;;;11.02;7.07;;;0.40;99.90;;;;;;4954911;29;20038;-86
2022/04/04 01:28:22;;;;;;;10.40;6.47;;;0.30;99.90;;;;;;4950546;28;20506;-87
2022/04/04 01:30:57;;;;;;;11.60;6.68;;;0.20;99.90;;;;;;4953485;29;20279;-87
2022/04/04 01:33:22;;;;;;;10.00;6.35;;;0.30;99.90;;;;;;4954434;29;20019;-86
2022/04/04 01:35:48;;;;;;;11.85;7.28;;;0.20;99.90;;;;;;4954456;29;20496;-87
2022/04/04 01:40:58;;;;;;;10.30;6.60;;;0.20;99.90;;;;;;4915604;29;20426;-88
2022/04/04 01:43:24;;;;;;;9.85;6.60;;;0.20;99.90;;;;;;4917434;29;20510;-88
2022/04/04 01:48:35;;;;;;;8.82;6.45;;;0.30;99.90;;;;;;4904722;29;20044;-88
2022/04/04 01:51:01;;;;;;;11.25;7.05;;;0.20;99.90;;;;;;4899278;29;20032;-88
2022/04/04 01:53:31;;;;;;;9.43;6.75;;;0.10;99.90;;;;;;4898595;29;20438;-89
2022/04/04 01:56:05;;;;;;;9.63;6.78;;;0.10;99.90;;;;;;4900342;29;20031;-88
2022/04/04 01:58:32;;;;;;;9.75;7.00;;;0.20;99.90;;;;;;4903733;29;20048;-88
2022/04/04 02:01:01;;;;;;;11.90;7.43;;;0.20;99.90;;;;;;4893884;29;20044;-88
2022/04/04 02:03:28;;;;;;;11.50;6.65;;;0.10;99.90;;;;;;4916942;29;20104;-87
2022/04/04 02:05:57;;;;;;;13.23;7.57;;;0.20;99.90;;;;;;4913137;29;20060;-88
2022/04/04 02:08:23;;;;;;;10.80;7.03;;;0.20;99.90;;;;;;4898462;29;20079;-87
2022/04/04 02:10:57;;;;;;;12.32;7.22;;;0.30;99.90;;;;;;4899077;29;20063;-88
2022/04/04 02:13:25;;;;;;;10.05;6.60;;;0.20;99.90;;;;;;4917656;29;20059;-87
2022/04/04 02:16:20;;;;;;;12.20;7.28;;;0.20;99.90;;;;;;4913875;29;20111;-87
2022/04/04 02:18:46;;;;;;;14.40;7.90;;;0.10;99.90;;;;;;4898125;29;20116;-88
2022/04/04 02:21:15;;;;;;;13.25;7.40;;;0.10;99.90;;;;;;4898599;29;20095;-89
2022/04/04 02:23:40;;;;;;;12.10;7.63;;;0.00;99.90;;;;;;4914151;29;20088;-87
2022/04/04 02:26:06;;;;;;;13.57;7.88;;;0.10;99.90;;;;;;4900759;29;20124;-88
2022/04/04 02:28:34;;;;;;;11.20;7.35;;;0.00;99.90;;;;;;4905984;29;20025;-88
2022/04/04 02:31:07;;;;;;;12.23;7.28;;;0.00;99.90;;;;;;4892773;29;20029;-88
2022/04/04 02:33:32;;;;;;;;;;;-0.10;99.90;;;;;;4899039;29;20363;-88
2022/04/04 02:36:10;;;;;;;10.98;7.22;;;-0.10;99.90;;;;;;4898099;29;19908;-88
2022/04/04 02:38:36;;;;;;;12.55;6.97;;;-0.10;99.90;;;;;;4904563;29;20032;-88
2022/04/04 02:41:05;;;;;;;11.93;8.02;;;-0.10;99.90;;;;;;4899210;29;20403;-88
2022/04/04 02:43:31;;;;;;;11.73;6.72;;;-0.30;99.90;;;;;;4898316;29;20075;-89
2022/04/04 02:46:17;;;;;;;12.32;7.20;;;-0.20;99.90;;;;;;4898012;29;20427;-88
2022/04/04 02:48:42;;;;;;;12.00;7.57;;;-0.30;99.90;;;;;;4904220;29;20059;-87
2022/04/04 02:51:14;;;;;;;14.00;7.80;;;-0.30;99.90;;;;;;4898077;29;20028;-87
2022/04/04 02:53:40;;;;;;;11.32;7.72;;;-0.20;99.90;;;;;;4897981;29;20108;-88
2022/04/04 02:58:50;;;;;;;10.75;7.65;;;-0.30;99.90;;;;;;4900007;29;20071;-87
2022/04/04 03:01:20;;;;;;;11.27;7.70;;;-0.40;99.90;;;;;;4911129;29;20033;-86
2022/04/04 03:03:46;;;;;;;12.35;8.27;;;-0.40;99.90;;;;;;4919892;29;20036;-86
2022/04/04 03:06:11;;;;;;;12.98;8.60;;;-0.30;99.90;;;;;;4915716;29;20039;-87
2022/04/04 03:08:37;;;;;;;10.30;7.43;;;-0.40;99.90;;;;;;4917720;29;20088;-87
2022/04/04 03:11:20;;;;;;;12.43;7.82;;;-0.30;99.90;;;;;;4900475;29;20067;-87
2022/04/04 03:13:46;;;;;;;11.20;7.80;;;-0.40;99.90;;;;;;4901328;29;20020;-89
2022/04/04 03:16:11;;;;;;;11.63;7.88;;;-0.30;99.90;;;;;;4904270;29;20031;-88
2022/04/04 03:18:40;;;;;;;14.80;8.68;;;-0.30;99.90;;;;;;4909316;29;20064;-88
2022/04/04 03:21:06;;;;;;;13.50;8.25;;;-0.30;99.90;;;;;;4897483;29;20455;-88
2022/04/04 03:23:33;;;;;;;12.13;8.07;;;-0.20;99.90;;;;;;4887836;29;20207;-87
2022/04/04 03:26:08;;;;;;;13.63;8.25;;;-0.30;99.90;;;;;;4900136;29;20482;-88
2022/04/04 03:28:34;;;;;;;13.27;8.68;;;-0.20;99.90;;;;;;4903964;29;20407;-88
2022/04/04 03:31:28;;;;;;;12.50;8.15;;;-0.30;99.90;;;;;;4902300;29;20025;-88
2022/04/04 03:33:54;;;;;;;12.73;8.40;;;-0.20;99.90;;;;;;4903386;29;20147;-88
2022/04/04 03:36:21;;;;;;;12.77;8.23;;;-0.20;99.90;;;;;;4900823;29;20472;-88
2022/04/04 03:38:47;;;;;;;12.25;8.40;;;-0.30;99.90;;;;;;4908495;29;20501;-88
2022/04/04 03:41:13;;;;;;;14.50;8.85;;;-0.30;99.90;;;;;;4900504;29;20566;-86
2022/04/04 03:43:38;;;;;;;14.63;9.45;;;-0.30;99.90;;;;;;4901139;29;20071;-87
2022/04/04 03:46:04;;;;;;;14.35;8.50;;;-0.20;99.90;;;;;;4898692;29;20025;-87
2022/04/04 03:48:46;;;;;;;13.75;9.38;;;-0.30;99.90;;;;;;4906324;29;20031;-88
2022/04/04 03:51:18;;;;;;;15.15;8.45;;;-0.30;99.90;;;;;;4907760;29;20037;-87
2022/04/04 03:53:43;;;;;;;12.70;8.57;;;-0.30;99.90;;;;;;4896036;29;20080;-87
2022/04/04 03:56:15;;;;;;;12.05;8.15;;;-0.30;99.90;;;;;;4904618;29;20036;-87
2022/04/04 03:58:41;;;;;;;13.60;8.43;;;-0.20;99.90;;;;;;4905568;29;20060;-88
2022/04/04 04:01:18;;;;;;;12.25;8.27;;;-0.20;99.90;;;;;;4902159;29;20040;-88
2022/04/04 04:03:44;;;;;;;10.82;7.72;;;-0.20;99.90;;;;;;4901172;29;20029;-87
2022/04/04 04:06:12;;;;;;;12.90;8.25;;;-0.20;99.90;;;;;;4902515;29;20111;-86
2022/04/04 04:08:40;;;;;;;13.30;8.38;;;-0.20;99.90;;;;;;4894486;29;20029;-88
2022/04/04 04:11:13;;;;;;;13.52;8.88;;;-0.20;99.90;;;;;;4899119;29;20031;-88
2022/04/04 04:13:43;;;;;;;13.77;8.70;;;-0.20;99.90;;;;;;4900056;29;20420;-87
2022/04/04 04:16:18;;;;;;;12.20;8.60;;;-0.20;99.90;;;;;;4900238;29;20576;-88
2022/04/04 04:18:49;;;;;;;14.32;9.40;;;-0.20;99.90;;;;;;4900733;29;20073;-87
2022/04/04 04:21:35;;;;;;;12.32;7.82;;;-0.20;99.90;;;;;;4899717;29;20033;-87
2022/04/04 04:24:01;;;;;;;14.52;8.85;;;-0.30;99.90;;;;;;4901292;29;20035;-88
2022/04/04 04:26:29;;;;;;;12.07;8.40;;;-0.30;99.90;;;;;;4907668;29;20036;-86
2022/04/04 04:28:55;;;;;;;14.27;8.82;;;-0.20;99.90;;;;;;4896778;29;20495;-88
2022/04/04 04:31:21;;;;;;;13.93;8.73;;;-0.30;99.90;;;;;;4898684;29;20033;-88
2022/04/04 04:33:46;;;;;;;16.92;8.65;;;-0.20;99.90;;;;;;4900136;29;20103;-87
2022/04/04 04:36:26;;;;;;;17.45;9.48;;;-0.30;99.90;;;;;;4899038;29;20564;-88
2022/04/04 04:38:52;;;;;;;15.07;9.35;;;-0.40;99.90;;;;;;4900254;29;20119;-87
2022/04/04 04:41:18;;;;;;;13.38;8.75;;;-0.40;99.90;;;;;;4900067;29;20028;-88
2022/04/04 04:43:44;;;;;;;14.20;9.20;;;-0.40;99.90;;;;;;4898557;29;20088;-88
2022/04/04 04:46:19;;;;;;;14.38;9.15;;;-0.40;99.90;;;;;;4907576;29;20102;-87
2022/04/04 04:48:44;;;;;;;14.18;9.30;;;-0.40;99.90;;;;;;4900150;29;20060;-88
2022/04/04 04:51:25;;;;;;;14.25;9.23;;;-0.30;99.90;;;;;;4894009;29;20031;-88
2022/04/04 04:53:51;;;;;;;15.23;8.85;;;-0.30;99.90;;;;;;4899528;29;20021;-87
2022/04/04 04:56:35;;;;;;;14.60;9.45;;;-0.20;99.90;;;;;;4912718;29;20028;-88
2022/04/04 04:59:02;;;;;;;15.35;9.43;;;-0.20;99.90;;;;;;4915246;29;20077;-88
2022/04/04 05:01:28;;;;;;;17.83;9.20;;;-0.20;99.90;;;;;;4900281;29;20040;-87
2022/04/04 05:03:53;;;;;;;15.65;9.38;;;-0.30;99.90;;;;;;4900526;29;20033;-87
2022/04/04 05:06:28;;;;;;;19.08;9.23;;;-0.30;99.90;;;;;;4906312;29;20028;-87
2022/04/04 05:08:59;;;;;;;15.85;10.00;;;-0.30;99.90;;;;;;4898927;29;20487;-87
2022/04/04 05:11:27;;;;;;;12.88;8.40;;;-0.30;99.90;;;;;;4901265;29;20054;-86
2022/04/04 05:13:53;;;;;;;15.02;9.20;;;-0.40;99.90;;;;;;4899439;29;20020;-86
2022/04/04 05:16:28;;;;;;;15.23;9.57;;;-0.40;99.90;;;;;;4899601;29;20024;-87
2022/04/04 05:18:53;;;;;;;18.88;11.73;;;-0.30;99.90;;;;;;4900856;29;20051;-86
2022/04/04 05:21:22;;;;;;;17.75;9.90;;;-0.30;99.90;;;;;;4898935;29;20032;-85
2022/04/04 05:23:48;;;;;;;16.13;9.88;;;-0.40;99.90;;;;;;4913041;29;20058;-86
2022/04/04 05:26:17;;;;;;;13.13;9.18;;;-0.40;99.90;;;;;;4901098;29;20355;-83
2022/04/04 05:28:42;;;;;;;16.90;8.73;;;-0.40;99.90;;;;;;4987695;23;20054;-88
2022/04/04 05:31:08;;;;;;;11.95;8.70;;;-0.40;99.90;;;;;;4938861;29;20020;-85
2022/04/04 05:33:35;;;;;;;15.07;9.45;;;-0.40;99.90;;;;;;4934683;29;20376;-86
2022/04/04 05:36:01;;;;;;;14.43;9.55;;;-0.40;99.90;;;;;;4936929;29;20024;-87
2022/04/04 05:38:44;;;;;;;13.85;8.57;;;-0.40;99.90;;;;;;4929869;29;20082;-87
2022/04/04 05:41:19;;;;;;;15.68;9.80;;;-0.40;99.90;;;;;;4916725;29;20025;-87
2022/04/04 05:43:58;;;;;;;13.70;8.85;;;-0.20;99.90;;;;;;4907336;29;20024;-87
2022/04/04 05:46:40;;;;;;;14.70;9.75;;;-0.30;99.90;;;;;;4919816;29;20012;-88
2022/04/04 05:49:05;;;;;;;13.55;9.13;;;-0.30;99.90;;;;;;4927776;29;20131;-87
2022/04/04 05:51:34;;;;;;;15.60;9.70;;;-0.30;99.90;;;;;;4930723;29;20023;-86
2022/04/04 05:54:06;;;;;;;14.98;9.57;;;-0.30;99.90;;;;;;4933199;29;20249;-87
2022/04/04 05:56:37;;;;;;;14.20;9.65;;;-0.20;99.90;;;;;;4921940;29;20024;-86
2022/04/04 05:59:51;;;;;;;14.82;9.73;;;-0.20;99.90;;;;;;4922158;29;20406;-86
2022/04/04 06:02:37;;;;;;;15.10;9.02;;;-0.10;99.90;;;;;;4917889;29;20040;-86
2022/04/04 06:05:09;;;;;;;18.08;9.85;;;-0.20;99.90;;;;;;4924112;29;20028;-85
2022/04/04 06:07:40;;;;;;;16.05;9.63;;;-0.10;99.90;;;;;;4928451;29;20055;-86
2022/04/04 06:10:13;;;;;;;16.23;9.48;;;-0.10;99.90;;;;;;4904025;29;20096;-87
2022/04/04 06:13:03;;;;;;;16.88;10.77;;;-0.10;99.90;;;;;;4917411;29;20036;-87
2022/04/04 06:16:09;;;;;;;14.80;9.32;;;0.00;99.90;;;;;;4920532;29;20036;-88
2022/04/04 06:18:50;;;;;;;14.98;9.27;;;0.00;99.90;;;;;;4863761;29;20173;-86
2022/04/04 06:24:34;;;;;;;14.70;9.45;;;0.00;99.90;;;;;;4883606;29;20060;-88
2022/04/04 06:39:19;;;;;;;13.85;9.32;;;0.60;99.90;;;;;;4937587;29;20048;-87
2022/04/04 06:41:46;;;;;;;12.68;9.23;;;0.70;99.90;;;;;;4941837;29;20419;-86
2022/04/04 06:44:12;;;;;;;14.10;8.65;;;0.80;99.90;;;;;;4942893;29;20028;-85
2022/04/04 06:46:37;;;;;;;14.27;8.82;;;0.90;99.90;;;;;;4944493;29;20027;-86
2022/04/04 06:49:04;;;;;;;12.90;8.90;;;1.00;99.90;;;;;;4938237;29;20051;-86
2022/04/04 06:51:36;;;;;;;18.58;9.25;;;1.20;99.90;;;;;;4913674;29;20064;-86
2022/04/04 06:54:05;;;;;;;13.98;9.18;;;1.40;99.90;;;;;;4925504;29;20024;-87
2022/04/04 06:56:41;;;;;;;12.10;8.48;;;1.40;99.90;;;;;;4923711;29;20032;-86
2022/04/04 06:59:06;;;;;;;14.38;9.00;;;1.50;99.90;;;;;;4922321;29;20091;-86
2022/04/04 07:01:35;;;;;;;12.13;8.30;;;1.60;99.90;;;;;;4921012;29;20427;-87
2022/04/04 07:04:00;;;;;;;12.88;8.00;;;1.70;99.90;;;;;;4911157;29;20036;-86
2022/04/04 07:06:26;;;;;;;13.40;8.55;;;1.80;99.90;;;;;;4922838;29;20447;-85
2022/04/04 07:08:52;;;;;;;12.57;7.95;;;2.10;99.90;;;;;;4922912;29;20075;-86
2022/04/04 07:11:22;;;;;;;12.82;7.93;;;2.40;99.90;;;;;;4922603;29;20077;-86
2022/04/04 07:13:49;;;;;;;13.63;7.85;;;2.60;99.90;;;;;;4923065;29;20040;-87
2022/04/04 07:16:18;;;;;;;11.77;7.35;;;2.80;99.90;;;;;;4929571;29;20028;-86
2022/04/04 07:18:48;;;;;;;11.40;8.00;;;3.20;99.90;;;;;;4927423;29;20109;-86
2022/04/04 07:21:13;;;;;;;12.13;7.78;;;3.50;99.90;;;;;;4922600;29;20435;-86
2022/04/04 07:23:39;;;;;;;10.05;6.60;;;4.00;99.90;;;;;;4922808;29;20079;-85
2022/04/04 07:26:05;;;;;;;10.43;7.20;;;4.30;99.90;;;;;;4916374;29;20100;-87
2022/04/04 07:28:30;;;;;;;12.73;6.95;;;4.90;99.90;;;;;;4922758;29;20032;-87
2022/04/04 07:30:57;;;;;;;15.18;9.02;;;5.50;99.90;;;;;;4921032;29;20029;-86
2022/04/04 07:33:25;;;;;;;9.77;6.80;;;6.00;99.90;;;;;;4922645;29;20026;-86
2022/04/04 07:35:51;;;;;;;9.52;6.35;;;6.40;99.90;;;;;;4922309;29;20558;-87
2022/04/04 07:46:06;;;;;;;10.13;5.73;;;6.90;99.90;;;;;;4931670;29;20042;-88
2022/04/04 07:49:34;;;;;;;7.15;5.30;;;7.30;99.90;;;;;;4853669;29;20309;-88
2022/04/04 07:52:47;;;;;;;7.80;6.05;;;7.80;99.90;;;;;;4885495;29;20032;-88
2022/04/04 07:56:08;;;;;;;8.70;5.72;;;8.10;98.70;;;;;;4946519;28;20023;-88
2022/04/04 07:58:37;;;;;;;6.03;4.57;;;8.30;98.80;;;;;;4951755;28;20019;-88
2022/04/04 08:01:23;;;;;;;9.13;5.95;;;8.80;98.00;;;;;;4951532;28;20112;-87
2022/04/04 08:04:27;;;;;;;6.82;5.15;;;9.30;96.30;;;;;;4955581;28;20046;-87
2022/04/04 08:07:29;;;;;;;7.22;5.20;;;10.00;96.20;;;;;;4910036;29;20043;-87
2022/04/04 08:09:55;;;;;;;9.90;6.22;;;10.70;93.60;;;;;;4941421;29;20055;-88
2022/04/04 08:12:27;;;;;;;7.47;5.20;;;11.30;90.90;;;;;;4936674;29;20024;-88
2022/04/04 08:14:53;;;;;;;8.32;5.28;;;11.90;85.90;;;;;;4939347;29;20390;-88
2022/04/04 08:17:19;;;;;;;8.77;4.70;;;12.50;81.20;;;;;;4935299;29;20026;-88
2022/04/04 08:19:48;;;;;;;4.70;4.15;;;13.20;79.20;;;;;;4935913;29;20493;-88
2022/04/04 08:22:13;;;;;;;5.57;4.60;;;14.00;75.00;;;;;;4941175;29;20039;-88
2022/04/04 08:24:41;;;;;;;4.57;3.97;;;14.20;66.20;;;;;;4942186;29;20032;-88
2022/04/04 08:27:07;;;;;;;5.65;3.78;;;13.90;61.20;;;;;;4943908;29;20079;-88
2022/04/04 08:29:33;;;;;;;8.43;3.85;;;13.80;60.70;;;;;;4934425;29;20032;-88
2022/04/04 08:32:02;;;;;;;4.10;3.60;;;13.80;60.00;;;;;;4929292;29;20035;-90
2022/04/04 08:34:31;;;;;;;4.75;4.05;;;14.00;58.00;;;;;;4926811;29;20391;-91
2022/04/04 08:36:57;;;;;;;5.72;3.85;;;14.20;57.90;;;;;;4924928;29;20020;-89
2022/04/04 08:39:22;;;;;;;6.65;3.92;;;14.40;58.10;;;;;;4928798;29;20039;-89
2022/04/04 08:41:48;;;;;;;4.72;4.10;;;14.60;56.50;;;;;;4930096;29;20028;-90
2022/04/04 08:44:17;;;;;;;5.05;4.20;;;14.50;55.20;;;;;;4935864;29;20036;-90
2022/04/04 08:47:30;;;;;;;5.28;3.90;;;14.50;54.90;;;;;;4929595;29;20059;-89
2022/04/04 08:53:08;;;;;;;7.27;4.30;;;14.00;53.90;;;;;;4908998;29;20032;-89
2022/04/04 08:55:52;;;;;;;6.30;4.50;;;13.90;55.10;;;;;;4930364;29;20023;-89
2022/04/04 08:59:08;;;;;;;5.38;4.30;;;13.90;54.80;;;;;;4931308;29;20027;-89
2022/04/04 09:01:55;;;;;;;6.35;4.53;;;14.00;54.40;;;;;;4886357;29;20028;-89
2022/04/04 09:05:00;;;;;;;5.65;4.47;;;14.00;53.40;;;;;;4924063;29;20032;-89
2022/04/04 09:07:28;;;;;;;5.97;4.63;;;13.60;53.60;;;;;;4923208;29;20099;-90
2022/04/04 09:09:57;;;;;;;5.47;4.68;;;13.20;53.40;;;;;;4931989;29;20082;-89
2022/04/04 09:12:50;;;;;;;5.30;4.50;;;13.00;55.00;;;;;;4927181;29;20024;-89
2022/04/04 09:18:25;;;;;;;9.18;5.15;;;13.00;54.80;;;;;;4934694;29;20028;-89
2022/04/04 09:25:25;;;;;;;7.28;5.32;;;13.40;52.60;;;;;;4895185;29;20534;-89
2022/04/04 09:28:23;;;;;;;7.78;5.50;;;13.00;52.00;;;;;;4832564;29;20114;-90
2022/04/04 09:38:24;;;;;;;6.05;4.70;;;11.10;55.80;;;;;;4899620;29;20120;-89
2022/04/04 09:40:50;;;;;;;9.02;5.65;;;10.60;56.00;;;;;;4866636;29;20036;-90
2022/04/04 09:43:25;;;;;;;6.95;4.85;;;10.40;56.70;;;;;;4872725;29;20033;-90
2022/04/04 09:46:50;;;;;;;7.78;5.40;;;10.20;56.10;;;;;;4895623;29;20532;-89
2022/04/04 09:49:55;;;;;;;6.85;5.72;;;9.90;56.00;;;;;;4847356;29;20041;-89
2022/04/04 09:53:00;;;;;;;6.85;5.25;;;9.70;55.30;;;;;;4846786;29;20033;-90
2022/04/04 09:55:47;;;;;;;6.25;5.55;;;9.60;57.20;;;;;;4878098;29;20037;-89
2022/04/04 09:58:38;;;;;;;6.47;5.38;;;9.60;56.80;;;;;;4889718;29;20444;-89
2022/04/04 10:01:12;;;;;;;6.50;4.70;;;9.50;57.30;;;;;;4923256;29;20087;-89
2022/04/04 10:03:40;;;;;;;6.97;4.88;;;9.40;55.10;;;;;;4923725;29;20102;-89
2022/04/04 10:06:09;;;;;;;6.30;4.68;;;8.90;55.40;;;;;;4921005;29;20083;-89
2022/04/04 10:08:45;;;;;;;6.00;5.05;;;8.70;54.90;;;;;;4927102;29;20023;-89
2022/04/04 10:11:12;;;;;;;6.82;4.72;;;8.70;56.70;;;;;;4917173;29;20059;-89
2022/04/04 10:13:42;;;;;;;6.63;5.18;;;8.60;56.80;;;;;;4926796;29;20079;-89
2022/04/04 10:16:09;;;;;;;6.22;4.70;;;8.80;58.00;;;;;;4926679;29;20478;-89
2022/04/04 10:18:37;;;;;;;6.68;4.57;;;8.80;58.40;;;;;;4934817;29;20032;-89
2022/04/04 10:21:03;;;;;;;6.68;4.80;;;8.80;59.40;;;;;;4935009;29;20054;-89
2022/04/04 10:23:43;;;;;;;7.50;4.90;;;8.70;60.50;;;;;;4932434;29;20020;-89
2022/04/04 10:26:09;;;;;;;5.90;4.43;;;8.90;60.80;;;;;;4930537;29;20415;-89
2022/04/04 10:28:48;;;;;;;5.85;4.47;;;8.70;60.20;;;;;;4927968;29;20019;-89
2022/04/04 10:31:16;;;;;;;7.25;4.68;;;8.90;62.40;;;;;;4933257;29;20400;-89
2022/04/04 10:33:50;;;;;;;5.57;4.97;;;9.20;60.40;;;;;;4929135;29;20027;-89
2022/04/04 10:36:48;;;;;;;;;;;;;;;;;;;;;
2022/04/04 10:39:36;;;;;;;8.20;5.30;;;9.20;61.20;;;;;;4917655;29;20050;-89
2022/04/04 10:42:23;;;;;;;5.55;5.03;;;9.10;58.70;;;;;;4932202;29;20040;-89
2022/04/04 10:44:50;;;;;;;6.18;4.45;;;8.90;58.00;;;;;;4928703;29;20028;-89
2022/04/04 10:47:23;;;;;;;5.57;4.43;;;8.80;58.90;;;;;;4928774;29;20028;-89
2022/04/04 10:49:52;;;;;;;5.88;4.20;;;8.80;59.80;;;;;;4925820;29;20023;-88
2022/04/04 10:52:19;;;;;;;7.95;4.45;;;9.00;61.60;;;;;;4931841;29;20024;-89
2022/04/04 10:54:46;;;;;;;5.88;4.50;;;9.10;60.00;;;;;;4925661;29;20415;-89
2022/04/04 11:49:12;;;;;;;5.80;4.00;;;9.50;59.10;;;;;;4301168;23;21742;-88
2022/04/04 11:51:38;;;;;;;4.82;3.70;;;9.50;56.20;;;;;;4932338;29;20420;-91
2022/04/04 11:54:10;;;;;;;3.75;3.25;;;9.40;57.60;;;;;;4936414;29;20024;-91
2022/04/04 11:56:36;;;;;;;;;;;9.40;58.00;;;;;;4937949;29;20180;-90
2022/04/04 11:59:04;;;;;;;4.38;3.38;;;9.60;58.90;;;;;;4953596;29;19966;-90
2022/04/04 12:01:34;;;;;;;3.28;2.97;;;9.70;59.00;;;;;;4936358;29;20027;-90
2022/04/04 12:04:01;;;;;;;3.72;3.03;;;9.80;58.40;;;;;;4953488;29;20032;-91
2022/04/04 12:07:09;;;;;;;3.38;3.08;;;9.90;59.60;;;;;;4958375;29;20024;-92
2022/04/04 12:10:23;;;;;;;5.32;3.63;;;10.00;59.80;;;;;;4946038;28;20063;-95
2022/04/04 12:13:26;;;;;;;5.63;3.85;;;10.20;58.90;;;;;;4959020;28;20168;-92
2022/04/04 12:16:34;;;;;;;;;;;;;;;;;;;;;
2022/04/04 12:19:32;;;;;;;5.63;3.72;;;10.30;58.60;;;;;;4947130;29;20087;-92
2022/04/04 12:25:28;;;;;;;3.70;3.35;;;10.30;58.10;;;;;;4943872;29;20188;-92
2022/04/04 12:28:09;;;;;;;6.95;4.13;;;10.00;58.10;;;;;;4932720;29;20064;-90
2022/04/04 12:37:51;;;;;;;4.95;3.60;;;10.10;60.40;;;;;;4853673;29;20033;-90
2022/04/04 12:41:21;;;;;;;3.90;3.58;;;10.10;60.30;;;;;;4850048;29;20010;-91
2022/04/04 12:44:41;;;;;;;5.43;4.13;;;10.10;60.50;;;;;;4842943;29;20037;-90
2022/04/04 12:47:59;;;;;;;;;;;;;;;;;;;;;
2022/04/04 12:50:54;;;;;;;4.10;3.28;;;10.30;59.20;;;;;;4904764;29;20088;-91
2022/04/04 12:57:24;;;;;;;4.10;3.72;;;10.20;58.10;;;;;;4912692;29;20028;-91
2022/04/04 13:03:27;;;;;;;3.83;3.28;;;10.30;57.10;;;;;;4973336;23;20118;-86
2022/04/04 13:06:02;;;;;;;6.60;3.65;;;10.30;57.90;;;;;;4964362;29;20096;-86
2022/04/04 14:11:35;;;;;;;3.53;3.22;;;9.40;57.90;;;;;;4862980;29;20045;-89
2022/04/04 14:14:09;;;;;;;3.85;3.45;;;9.40;58.90;;;;;;4864869;29;20344;-91
2022/04/04 14:16:39;;;;;;;6.70;3.53;;;9.40;58.80;;;;;;4904450;29;20060;-91
2022/04/04 14:19:20;;;;;;;4.97;3.83;;;9.40;59.60;;;;;;4899193;29;20120;-90
2022/04/04 14:22:58;;;;;;;3.85;3.45;;;9.40;58.60;;;;;;4890478;29;20053;-89
2022/04/04 14:25:40;;;;;;;4.82;4.00;;;9.30;58.70;;;;;;4822089;29;20191;-89
2022/04/04 14:29:15;;;;;;;4.90;3.57;;;9.20;58.40;;;;;;4885628;29;20045;-90
2022/04/04 14:32:09;;;;;;;4.75;3.83;;;9.20;58.70;;;;;;4878258;29;20128;-89
2022/04/04 14:35:07;;;;;;;4.63;3.97;;;9.10;58.00;;;;;;4878184;29;20109;-89
2022/04/04 14:37:33;;;;;;;7.75;3.80;;;9.00;58.90;;;;;;4876807;29;20025;-89
2022/04/04 14:39:59;;;;;;;4.78;4.10;;;9.00;59.30;;;;;;4886161;29;20400;-90
2022/04/04 14:42:24;;;;;;;5.00;4.30;;;9.10;60.10;;;;;;4895810;29;20079;-90
2022/04/04 14:44:52;;;;;;;4.85;4.35;;;9.10;58.90;;;;;;4895642;29;20089;-89
2022/04/04 14:47:18;;;;;;;7.65;4.50;;;9.20;59.00;;;;;;4895547;29;20040;-90
2022/04/04 14:49:44;;;;;;;4.90;3.95;;;9.10;58.70;;;;;;4895396;29;20068;-91
2022/04/04 14:52:10;;;;;;;8.82;5.63;;;9.10;59.50;;;;;;4895903;29;20033;-89
2022/04/04 14:54:36;;;;;;;6.05;4.75;;;9.00;59.20;;;;;;4894855;29;20043;-90
2022/04/04 14:57:02;;;;;;;7.88;4.60;;;9.00;59.30;;;;;;4894521;29;20161;-90
2022/04/04 14:59:29;;;;;;;4.95;4.32;;;8.90;59.40;;;;;;4895038;29;20032;-90
2022/04/04 15:01:56;;;;;;;8.35;5.45;;;8.80;59.10;;;;;;4888386;29;20184;-91
2022/04/04 15:04:21;;;;;;;5.68;4.68;;;8.70;59.20;;;;;;4899366;29;20060;-90
2022/04/04 15:06:47;;;;;;;5.80;4.90;;;8.60;59.90;;;;;;4889486;29;20120;-90
2022/04/04 15:09:12;;;;;;;9.93;4.57;;;8.60;59.60;;;;;;4895457;29;20360;-89
2022/04/04 15:11:38;;;;;;;6.72;4.72;;;8.50;59.60;;;;;;4900498;29;20132;-90
2022/04/04 15:14:04;;;;;;;4.78;4.22;;;8.40;60.30;;;;;;4887624;29;20115;-90
2022/04/04 15:16:30;;;;;;;5.70;4.53;;;8.40;61.20;;;;;;4891678;29;20111;-90
2022/04/04 15:18:58;;;;;;;4.78;3.85;;;8.40;61.90;;;;;;4886046;29;20033;-93
2022/04/04 15:21:24;;;;;;;6.05;4.65;;;8.40;61.70;;;;;;4899398;29;20032;-92
2022/04/04 15:23:55;;;;;;;6.03;4.75;;;8.40;61.60;;;;;;4899485;29;20092;-92
2022/04/04 15:26:20;;;;;;;6.20;4.78;;;8.30;61.20;;;;;;4899512;29;20115;-92
2022/04/04 15:28:54;;;;;;;6.70;4.72;;;8.30;60.70;;;;;;4898940;29;20504;-92
2022/04/04 15:31:24;;;;;;;7.88;4.70;;;8.20;60.90;;;;;;4898808;29;20025;-91
2022/04/04 15:33:50;;;;;;;5.70;4.88;;;8.10;61.20;;;;;;4898890;29;20483;-91
2022/04/04 15:36:19;;;;;;;8.45;4.65;;;8.10;61.00;;;;;;4898759;29;20025;-92
2022/04/04 15:38:45;;;;;;;7.38;4.75;;;7.90;61.70;;;;;;4898737;29;20025;-92
2022/04/04 15:41:11;;;;;;;5.57;4.88;;;7.90;62.20;;;;;;4898712;29;20029;-91
2022/04/04 15:43:39;;;;;;;7.60;5.05;;;7.80;62.30;;;;;;4898701;29;20380;-92
2022/04/04 15:46:06;;;;;;;5.45;4.90;;;7.80;62.70;;;;;;4898803;29;20041;-91
2022/04/04 15:48:31;;;;;;;6.35;4.60;;;7.70;63.20;;;;;;4898479;29;20036;-92
2022/04/04 15:50:57;;;;;;;5.88;4.82;;;7.70;62.60;;;;;;4899576;29;20029;-91
2022/04/04 15:53:23;;;;;;;6.47;5.40;;;7.60;62.70;;;;;;4890310;29;20028;-91
2022/04/04 15:55:48;;;;;;;6.32;5.28;;;7.60;63.40;;;;;;4898758;29;20112;-91
2022/04/04 15:58:15;;;;;;;6.22;4.72;;;7.60;63.90;;;;;;4895542;29;20021;-91
2022/04/04 16:00:42;;;;;;;7.05;5.32;;;7.60;63.80;;;;;;4880017;29;20029;-91
2022/04/04 16:03:08;;;;;;;5.70;5.10;;;7.50;63.50;;;;;;4879796;29;20101;-91
2022/04/04 16:05:34;;;;;;;5.18;4.45;;;7.50;64.20;;;;;;4889071;29;20373;-90
2022/04/04 16:08:00;;;;;;;6.57;4.70;;;7.50;64.40;;;;;;4898682;29;20111;-92
2022/04/04 16:10:25;;;;;;;8.80;6.15;;;7.50;64.80;;;;;;4897527;29;20163;-91
2022/04/04 16:12:51;;;;;;;8.40;5.35;;;7.40;65.20;;;;;;4898783;29;20124;-90
2022/04/04 16:15:17;;;;;;;10.30;5.45;;;7.50;64.60;;;;;;4898396;29;20525;-91
2022/04/04 16:17:42;;;;;;;7.10;5.00;;;7.40;65.00;;;;;;4893629;29;20024;-91
2022/04/04 16:20:09;;;;;;;7.18;5.47;;;7.40;65.30;;;;;;4884971;29;20037;-91
2022/04/04 16:22:35;;;;;;;5.47;4.32;;;7.30;64.60;;;;;;4897954;29;20028;-91
2022/04/04 16:25:00;;;;;;;5.97;4.70;;;7.30;64.70;;;;;;4897266;29;20128;-91